createdAt,value
2019-03-16T00:11:39.000Z,37.908
2019-03-16T00:21:39.000Z,37.992
2019-03-16T00:31:39.000Z,37.958
2019-03-16T00:41:42.000Z,38.095
2019-03-16T00:51:39.000Z,38.191
2019-03-16T01:01:39.000Z,38.231
2019-03-16T01:11:39.000Z,38.25
2019-03-16T01:21:39.000Z,38.281
2019-03-16T01:31:39.000Z,38.344
2019-03-16T01:41:39.000Z,38.397
2019-03-16T01:51:39.000Z,38.298
2019-03-16T02:01:39.000Z,38.549
2019-03-16T02:11:39.000Z,38.475
2019-03-16T02:21:39.000Z,38.592
2019-03-16T02:31:39.000Z,38.635
2019-03-16T02:41:39.000Z,38.689
2019-03-16T02:51:39.000Z,38.547
2019-03-16T03:01:39.000Z,38.685
2019-03-16T03:11:39.000Z,38.75
2019-03-16T03:21:39.000Z,38.747
2019-03-16T03:31:39.000Z,38.865
2019-03-16T03:41:39.000Z,38.768
2019-03-16T03:51:39.000Z,38.842
2019-03-16T04:01:39.000Z,38.797
2019-03-16T04:11:39.000Z,38.796
2019-03-16T04:21:39.000Z,38.87
2019-03-16T04:31:39.000Z,38.943
2019-03-16T04:41:39.000Z,38.802
2019-03-16T04:51:39.000Z,38.844
2019-03-16T05:01:39.000Z,38.864
2019-03-16T05:11:40.000Z,38.766
2019-03-16T05:21:40.000Z,38.743
2019-03-16T05:31:40.000Z,38.634
2019-03-16T05:41:40.000Z,38.666
2019-03-16T05:51:40.000Z,38.515
2019-03-16T06:01:40.000Z,38.502
2019-03-16T06:11:40.000Z,38.48
2019-03-16T06:21:40.000Z,38.34
2019-03-16T06:31:40.000Z,38.2
2019-03-16T06:41:40.000Z,38.071
2019-03-16T06:51:40.000Z,38.059
2019-03-16T07:01:40.000Z,37.876
2019-03-16T07:11:40.000Z,37.834
2019-03-16T07:21:40.000Z,37.738
2019-03-16T07:31:40.000Z,37.662
2019-03-16T07:41:40.000Z,37.511
2019-03-16T07:51:40.000Z,37.448
2019-03-16T08:01:40.000Z,37.405
2019-03-16T08:11:40.000Z,37.34
2019-03-16T08:21:40.000Z,37.201
2019-03-16T08:31:40.000Z,37.19
2019-03-16T08:41:40.000Z,37.199
2019-03-16T08:51:40.000Z,37.167
2019-03-16T09:01:40.000Z,37.005
2019-03-16T09:11:40.000Z,37.039
2019-03-16T09:21:40.000Z,36.898
2019-03-16T09:31:40.000Z,36.759
2019-03-16T09:41:41.000Z,36.76
2019-03-16T09:51:40.000Z,36.761
2019-03-16T10:01:40.000Z,36.762
2019-03-16T10:11:40.000Z,36.719
2019-03-16T10:21:40.000Z,36.591
2019-03-16T10:31:40.000Z,36.208
2019-03-16T10:41:40.000Z,36.12
2019-03-16T10:51:40.000Z,36.198
2019-03-16T11:01:40.000Z,36.112
2019-03-16T11:11:40.000Z,36.027
2019-03-16T11:21:40.000Z,36.06
2019-03-16T11:31:40.000Z,36.129
2019-03-16T11:41:40.000Z,36.239
2019-03-16T11:51:40.000Z,36.23
2019-03-16T12:01:40.000Z,36.244
2019-03-16T12:11:40.000Z,36.266
2019-03-16T12:21:40.000Z,36.203
2019-03-16T12:31:40.000Z,36.161
2019-03-16T12:41:40.000Z,36.205
2019-03-16T12:51:40.000Z,36.261
2019-03-16T13:01:40.000Z,36.24
2019-03-16T13:11:40.000Z,36.23
2019-03-16T13:21:41.000Z,36.21
2019-03-16T13:31:41.000Z,36.093
2019-03-16T13:41:41.000Z,36.04
2019-03-16T13:51:41.000Z,36.139
2019-03-16T14:01:41.000Z,36.14
2019-03-16T14:11:43.000Z,36.13
2019-03-16T14:21:41.000Z,36.184
2019-03-16T14:31:41.000Z,36.25
2019-03-16T14:41:41.000Z,36.25
2019-03-16T14:51:41.000Z,36.284
2019-03-16T15:01:41.000Z,36.251
2019-03-16T15:11:41.000Z,36.296
2019-03-16T15:21:41.000Z,36.276
2019-03-16T15:31:41.000Z,36.54
2019-03-16T15:41:41.000Z,37.744
2019-03-16T15:51:41.000Z,38.596
2019-03-16T16:01:41.000Z,38.62
2019-03-16T16:11:41.000Z,38.714
2019-03-16T16:21:41.000Z,38.56
2019-03-16T16:31:41.000Z,37.753
2019-03-16T16:41:41.000Z,38.057
2019-03-16T16:51:41.000Z,38.291
2019-03-16T17:01:41.000Z,38.225
2019-03-16T17:11:41.000Z,37.963
2019-03-16T17:21:41.000Z,37.982
2019-03-16T17:31:41.000Z,38.142
2019-03-16T17:41:41.000Z,38.011
2019-03-16T17:51:41.000Z,38.033
2019-03-16T18:11:41.000Z,37.89
2019-03-16T18:21:41.000Z,38.03
2019-03-16T18:31:41.000Z,38.017
2019-03-16T18:41:41.000Z,37.985
2019-03-16T18:51:41.000Z,38.071
2019-03-16T19:01:41.000Z,38.016
2019-03-16T19:11:42.000Z,38.133
2019-03-16T19:21:41.000Z,38.004
2019-03-16T19:31:41.000Z,37.981
2019-03-16T19:41:41.000Z,37.916
2019-03-16T19:51:41.000Z,37.949
2019-03-16T20:01:41.000Z,37.937
2019-03-16T20:11:41.000Z,37.992
2019-03-16T20:21:41.000Z,37.938
2019-03-16T20:31:41.000Z,37.894
2019-03-16T20:41:41.000Z,37.981
2019-03-16T20:51:42.000Z,37.916
2019-03-16T21:01:41.000Z,38.012
2019-03-16T21:11:41.000Z,37.872
2019-03-16T21:21:41.000Z,37.882
2019-03-16T21:31:42.000Z,37.861
2019-03-16T21:41:42.000Z,37.872
2019-03-16T21:51:42.000Z,37.786
2019-03-16T22:01:42.000Z,37.785
2019-03-16T22:11:42.000Z,37.86
2019-03-16T22:21:42.000Z,37.773
2019-03-16T22:31:42.000Z,37.761
2019-03-16T22:41:42.000Z,37.815
2019-03-16T22:51:42.000Z,37.804
2019-03-16T23:01:42.000Z,37.964
2019-03-16T23:11:42.000Z,37.952
2019-03-16T23:21:42.000Z,38.016
2019-03-16T23:31:42.000Z,38.058
2019-03-16T23:41:42.000Z,38.141
2019-03-16T23:51:42.000Z,38.183
